createdAt,value
2018-07-31T00:01:40.883Z,4.57
2018-07-31T00:04:08.908Z,3.97
2018-07-31T00:06:36.960Z,4.57
2018-07-31T00:09:07.290Z,4.70
2018-07-31T00:11:35.451Z,4.83
2018-07-31T00:14:03.503Z,4.23
2018-07-31T00:16:31.534Z,4.77
2018-07-31T00:18:59.626Z,4.37
2018-07-31T00:21:27.663Z,4.90
2018-07-31T00:23:55.710Z,4.30
2018-07-31T00:26:23.722Z,4.30
2018-07-31T00:28:51.742Z,5.50
2018-07-31T00:31:19.779Z,5.70
2018-07-31T00:33:48.078Z,5.20
2018-07-31T00:36:16.091Z,5.53
2018-07-31T00:38:44.103Z,5.93
2018-07-31T00:41:12.133Z,5.43
2018-07-31T00:43:40.183Z,5.20
2018-07-31T00:46:08.209Z,5.63
2018-07-31T00:48:36.242Z,5.40
2018-07-31T00:51:04.268Z,5.20
2018-07-31T00:53:32.290Z,5.40
2018-07-31T00:56:00.309Z,5.80
2018-07-31T00:58:28.411Z,5.07
2018-07-31T01:00:56.436Z,5.83
2018-07-31T01:03:24.443Z,5.33
2018-07-31T01:05:52.445Z,6.07
2018-07-31T01:08:20.537Z,6.60
2018-07-31T01:10:48.576Z,6.17
2018-07-31T01:13:16.615Z,5.73
2018-07-31T01:15:44.634Z,5.80
2018-07-31T01:18:12.666Z,6.63
2018-07-31T01:20:40.697Z,5.57
2018-07-31T01:23:08.782Z,7.00
2018-07-31T01:25:36.798Z,5.70
2018-07-31T01:28:04.851Z,6.40
2018-07-31T01:30:32.868Z,6.70
2018-07-31T01:33:00.926Z,7.13
2018-07-31T01:35:28.950Z,5.97
2018-07-31T01:37:56.966Z,6.10
2018-07-31T01:40:24.994Z,7.10
2018-07-31T01:42:53.046Z,6.60
2018-07-31T01:45:21.076Z,6.40
2018-07-31T01:47:50.015Z,5.47
2018-07-31T01:50:18.599Z,5.83
2018-07-31T01:52:46.637Z,6.27
2018-07-31T01:55:14.673Z,6.57
2018-07-31T01:57:42.712Z,6.53
2018-07-31T02:00:10.868Z,6.77
2018-07-31T02:02:38.948Z,5.83
2018-07-31T02:05:07.061Z,6.90
2018-07-31T02:07:35.097Z,6.50
2018-07-31T02:10:03.133Z,6.27
2018-07-31T02:12:31.149Z,6.80
2018-07-31T02:14:59.167Z,6.50
2018-07-31T02:17:27.256Z,6.60
2018-07-31T02:19:55.210Z,5.80
2018-07-31T02:22:23.249Z,6.10
2018-07-31T02:24:51.305Z,6.43
2018-07-31T02:27:19.313Z,5.77
2018-07-31T02:29:52.936Z,7.20
2018-07-31T02:32:20.970Z,6.60
2018-07-31T02:34:49.001Z,6.37
2018-07-31T02:37:17.021Z,6.53
2018-07-31T02:39:45.073Z,6.70
2018-07-31T02:42:13.089Z,6.30
2018-07-31T02:44:41.112Z,7.73
2018-07-31T02:47:09.106Z,6.57
2018-07-31T02:49:37.121Z,7.07
2018-07-31T02:52:05.137Z,6.30
2018-07-31T02:54:33.233Z,6.40
2018-07-31T02:57:01.314Z,6.83
2018-07-31T02:59:29.325Z,6.70
2018-07-31T03:01:57.322Z,6.90
2018-07-31T03:04:25.365Z,6.37
2018-07-31T03:06:53.417Z,7.20
2018-07-31T03:09:21.445Z,7.60
2018-07-31T03:11:49.462Z,7.70
2018-07-31T03:14:17.499Z,7.40
2018-07-31T03:16:45.501Z,7.40
2018-07-31T03:19:13.575Z,7.27
2018-07-31T03:21:41.610Z,8.20
2018-07-31T03:24:09.676Z,7.60
2018-07-31T03:26:37.692Z,7.27
2018-07-31T03:29:05.735Z,7.40
2018-07-31T03:31:33.750Z,6.53
2018-07-31T03:34:01.781Z,6.50
2018-07-31T03:36:29.797Z,7.33
2018-07-31T03:38:57.818Z,7.10
2018-07-31T03:41:25.835Z,7.50
2018-07-31T03:43:53.877Z,7.53
2018-07-31T03:46:21.941Z,7.10
2018-07-31T03:48:49.760Z,7.93
2018-07-31T03:51:17.801Z,6.93
2018-07-31T03:53:45.816Z,7.50
2018-07-31T03:56:13.878Z,7.30
2018-07-31T03:58:41.888Z,7.10
2018-07-31T04:01:09.893Z,6.63
2018-07-31T04:03:37.921Z,7.23
2018-07-31T04:06:05.971Z,7.07
2018-07-31T04:08:33.985Z,6.17
2018-07-31T04:11:02.021Z,6.97
2018-07-31T04:13:30.066Z,6.80
2018-07-31T04:15:58.082Z,6.70
2018-07-31T04:18:26.093Z,7.13
2018-07-31T04:20:54.115Z,5.90
2018-07-31T04:23:22.153Z,6.47
2018-07-31T04:25:50.168Z,6.00
2018-07-31T04:28:18.201Z,6.00
2018-07-31T04:30:46.481Z,6.00
2018-07-31T04:33:14.613Z,6.53
2018-07-31T04:35:42.772Z,5.60
2018-07-31T04:38:10.842Z,6.43
2018-07-31T04:40:38.681Z,5.80
2018-07-31T04:43:06.729Z,6.40
2018-07-31T04:45:34.778Z,6.10
2018-07-31T04:48:02.802Z,6.40
2018-07-31T04:50:30.834Z,6.10
2018-07-31T04:52:58.853Z,6.00
2018-07-31T04:55:26.900Z,6.00
2018-07-31T04:57:54.940Z,6.60
2018-07-31T05:00:22.968Z,6.17
2018-07-31T05:02:50.981Z,6.90
2018-07-31T05:05:19.011Z,6.00
2018-07-31T05:07:47.094Z,6.60
2018-07-31T05:10:15.132Z,5.93
2018-07-31T05:12:43.853Z,6.90
2018-07-31T05:15:11.940Z,6.80
2018-07-31T05:17:40.246Z,5.83
2018-07-31T05:20:09.581Z,6.80
2018-07-31T05:22:37.897Z,6.60
2018-07-31T05:25:06.825Z,7.00
2018-07-31T05:27:34.857Z,6.70
2018-07-31T05:30:02.956Z,6.50
2018-07-31T05:32:30.988Z,6.20
2018-07-31T05:34:59.043Z,5.33
2018-07-31T05:37:27.084Z,5.37
2018-07-31T05:39:55.397Z,6.40
2018-07-31T05:42:23.470Z,7.00
2018-07-31T05:44:51.501Z,6.10
2018-07-31T05:47:19.533Z,5.90
2018-07-31T05:49:47.599Z,5.80
2018-07-31T05:52:15.666Z,6.20
2018-07-31T05:54:43.764Z,5.97
2018-07-31T05:57:11.793Z,6.73
2018-07-31T05:59:39.838Z,5.90
2018-07-31T06:02:07.858Z,7.03
2018-07-31T06:04:35.885Z,5.73
2018-07-31T06:07:03.944Z,6.50
2018-07-31T06:09:32.001Z,6.60
2018-07-31T06:12:00.051Z,6.47
2018-07-31T06:14:28.067Z,6.20
2018-07-31T06:16:56.081Z,6.20
2018-07-31T06:19:24.109Z,6.33
2018-07-31T06:21:52.149Z,7.13
2018-07-31T06:24:20.165Z,6.40
2018-07-31T06:26:48.244Z,5.40
2018-07-31T06:29:16.250Z,6.50
2018-07-31T06:31:44.276Z,5.93
2018-07-31T06:34:12.281Z,5.90
2018-07-31T06:36:40.296Z,6.37
2018-07-31T06:39:09.358Z,6.90
2018-07-31T06:41:37.398Z,6.60
2018-07-31T06:44:05.653Z,6.80
2018-07-31T06:46:33.677Z,7.37
2018-07-31T06:49:01.693Z,6.40
2018-07-31T06:51:29.718Z,6.83
2018-07-31T06:53:57.738Z,7.03
2018-07-31T06:56:25.762Z,7.30
2018-07-31T06:58:53.946Z,6.47
2018-07-31T07:01:21.987Z,5.90
2018-07-31T07:03:50.042Z,6.87
2018-07-31T07:06:18.086Z,7.50
2018-07-31T07:08:46.103Z,6.90
2018-07-31T07:11:14.276Z,7.67
2018-07-31T07:13:42.285Z,7.00
2018-07-31T07:16:10.306Z,6.40
2018-07-31T07:18:38.312Z,7.20
2018-07-31T07:21:07.024Z,6.63
2018-07-31T07:23:35.078Z,6.77
2018-07-31T07:26:03.088Z,7.13
2018-07-31T07:28:31.106Z,6.63
2018-07-31T07:30:59.121Z,7.37
2018-07-31T07:33:27.194Z,7.00
2018-07-31T07:35:55.209Z,6.60
2018-07-31T07:38:23.309Z,6.47
2018-07-31T07:40:51.662Z,7.20
2018-07-31T07:43:19.673Z,6.57
2018-07-31T07:45:47.702Z,6.83
2018-07-31T07:48:15.729Z,7.20
2018-07-31T07:50:43.754Z,6.67
2018-07-31T07:53:11.850Z,7.60
2018-07-31T07:55:39.857Z,6.67
2018-07-31T07:58:07.886Z,7.33
2018-07-31T08:00:35.913Z,7.77
2018-07-31T08:03:03.925Z,7.27
2018-07-31T08:05:31.944Z,6.80
2018-07-31T08:08:00.001Z,6.60
2018-07-31T08:10:28.042Z,6.50
2018-07-31T08:12:56.324Z,7.23
2018-07-31T08:15:24.350Z,7.47
2018-07-31T08:17:52.365Z,6.23
2018-07-31T08:20:20.415Z,7.07
2018-07-31T08:22:48.418Z,6.70
2018-07-31T08:25:16.457Z,6.80
2018-07-31T08:27:44.493Z,6.77
2018-07-31T08:30:12.493Z,6.33
2018-07-31T08:32:40.506Z,6.43
2018-07-31T08:35:08.565Z,6.50
2018-07-31T08:37:36.601Z,6.67
2018-07-31T08:40:04.658Z,6.93
2018-07-31T08:42:32.678Z,5.90
2018-07-31T08:45:00.693Z,6.10
2018-07-31T08:47:28.508Z,6.43
2018-07-31T08:49:56.555Z,6.60
2018-07-31T08:52:24.589Z,7.07
2018-07-31T08:54:52.663Z,6.83
2018-07-31T08:57:20.693Z,5.93
2018-07-31T08:59:48.746Z,6.43
2018-07-31T09:02:16.798Z,6.23
2018-07-31T09:04:44.818Z,6.47
2018-07-31T09:07:12.834Z,7.33
2018-07-31T09:09:40.852Z,6.30
2018-07-31T09:12:08.857Z,6.20
2018-07-31T09:14:36.877Z,6.20
2018-07-31T09:17:04.892Z,5.87
2018-07-31T09:19:32.921Z,6.63
2018-07-31T09:22:01.027Z,6.53
2018-07-31T09:24:29.120Z,5.90
2018-07-31T09:26:57.081Z,6.20
2018-07-31T09:29:25.085Z,5.53
2018-07-31T09:31:53.125Z,6.93
2018-07-31T09:34:21.134Z,5.63
2018-07-31T09:36:49.208Z,6.20
2018-07-31T09:39:17.250Z,6.17
2018-07-31T09:41:45.273Z,5.50
2018-07-31T09:44:13.292Z,5.20
2018-07-31T09:46:41.397Z,6.00
2018-07-31T09:49:09.422Z,5.60
2018-07-31T09:51:37.436Z,5.83
2018-07-31T09:54:05.470Z,6.23
2018-07-31T09:56:33.479Z,5.27
2018-07-31T09:59:01.498Z,5.90
2018-07-31T10:01:29.501Z,5.87
2018-07-31T10:03:57.524Z,5.60
2018-07-31T10:06:25.566Z,6.00
2018-07-31T10:08:53.589Z,5.13
2018-07-31T10:11:21.642Z,5.37
2018-07-31T10:13:49.665Z,5.67
2018-07-31T10:16:17.674Z,5.53
2018-07-31T10:18:45.694Z,5.17
2018-07-31T10:21:13.709Z,5.63
2018-07-31T10:23:41.740Z,4.80
2018-07-31T10:26:09.732Z,5.20
2018-07-31T10:28:37.811Z,5.00
2018-07-31T10:31:06.004Z,5.40
2018-07-31T10:33:34.049Z,4.63
2018-07-31T10:36:02.146Z,5.13
2018-07-31T10:38:30.177Z,5.53
2018-07-31T10:40:58.194Z,4.40
2018-07-31T10:43:26.206Z,4.97
2018-07-31T10:45:54.330Z,4.53
2018-07-31T10:48:22.602Z,5.27
2018-07-31T10:50:50.643Z,4.90
2018-07-31T10:53:18.489Z,5.17
2018-07-31T10:55:46.532Z,5.20
2018-07-31T10:58:14.645Z,5.43
2018-07-31T11:00:42.605Z,5.13
2018-07-31T11:03:10.722Z,5.30
2018-07-31T11:05:38.668Z,4.50
2018-07-31T11:08:06.741Z,4.43
2018-07-31T11:10:34.759Z,5.10
2018-07-31T11:13:02.796Z,5.30
2018-07-31T11:15:30.629Z,4.80
2018-07-31T11:17:58.670Z,5.30
2018-07-31T11:20:26.500Z,4.87
2018-07-31T11:22:54.922Z,4.50
2018-07-31T11:25:22.941Z,4.73
2018-07-31T11:27:50.990Z,5.90
2018-07-31T11:30:19.009Z,5.60
2018-07-31T11:32:47.073Z,5.50
2018-07-31T11:35:15.116Z,5.23
2018-07-31T11:37:43.136Z,5.83
2018-07-31T11:40:11.201Z,5.83
2018-07-31T11:42:39.210Z,5.07
2018-07-31T11:45:07.305Z,5.73
2018-07-31T11:47:35.364Z,5.50
2018-07-31T11:50:03.530Z,5.53
2018-07-31T11:52:31.430Z,5.37
2018-07-31T11:54:59.471Z,6.03
2018-07-31T11:57:27.497Z,5.50
2018-07-31T11:59:55.530Z,5.03
2018-07-31T12:02:23.549Z,5.70
2018-07-31T12:04:51.591Z,4.80
2018-07-31T12:07:19.596Z,5.53
2018-07-31T12:09:47.655Z,5.70
2018-07-31T12:12:15.629Z,5.00
2018-07-31T12:14:43.643Z,5.57
2018-07-31T12:17:11.686Z,5.50
2018-07-31T12:19:39.745Z,4.90
2018-07-31T12:22:07.798Z,5.37
2018-07-31T12:24:35.822Z,5.40
2018-07-31T12:27:03.911Z,5.03
2018-07-31T12:29:31.697Z,4.97
2018-07-31T12:31:59.732Z,5.23
2018-07-31T12:34:27.741Z,4.10
2018-07-31T12:36:55.805Z,4.50
2018-07-31T12:39:23.825Z,4.80
2018-07-31T12:41:51.855Z,4.50
2018-07-31T12:44:19.846Z,5.47
2018-07-31T12:46:47.873Z,5.03
2018-07-31T12:49:15.878Z,4.60
2018-07-31T12:51:43.889Z,4.43
2018-07-31T12:54:11.909Z,4.47
2018-07-31T12:56:39.946Z,4.17
2018-07-31T12:59:07.965Z,4.60
2018-07-31T13:01:35.994Z,4.63
2018-07-31T13:04:04.022Z,4.03
2018-07-31T13:06:32.070Z,4.63
2018-07-31T13:09:00.086Z,4.47
2018-07-31T13:11:28.095Z,4.70
2018-07-31T13:13:56.118Z,4.40
2018-07-31T13:16:24.139Z,4.20
2018-07-31T13:18:52.181Z,4.00
2018-07-31T13:21:20.221Z,4.20
2018-07-31T13:23:48.229Z,4.43
2018-07-31T13:26:16.249Z,4.00
2018-07-31T13:28:44.262Z,3.40
2018-07-31T13:31:12.332Z,4.03
2018-07-31T13:33:40.336Z,3.90
2018-07-31T13:36:08.417Z,3.93
2018-07-31T13:38:36.375Z,4.70
2018-07-31T13:41:04.413Z,4.40
2018-07-31T13:43:32.476Z,4.70
2018-07-31T13:46:00.836Z,3.97
2018-07-31T13:48:28.861Z,3.60
2018-07-31T13:50:56.916Z,3.87
2018-07-31T13:53:24.901Z,4.40
2018-07-31T13:55:52.898Z,5.07
2018-07-31T13:58:20.942Z,4.80
2018-07-31T14:00:49.005Z,5.40
2018-07-31T14:03:17.005Z,4.30
2018-07-31T14:05:45.042Z,4.67
2018-07-31T14:08:13.073Z,4.37
2018-07-31T14:10:41.089Z,4.80
2018-07-31T14:13:09.120Z,5.00
2018-07-31T14:15:37.132Z,4.70
2018-07-31T14:18:04.966Z,5.07
2018-07-31T14:20:33.001Z,4.97
2018-07-31T14:23:01.009Z,5.50
2018-07-31T14:25:29.012Z,4.90
2018-07-31T14:27:57.049Z,4.70
2018-07-31T14:30:25.084Z,5.20
2018-07-31T14:32:53.185Z,4.80
2018-07-31T14:35:21.190Z,5.17
2018-07-31T14:37:49.230Z,4.20
2018-07-31T14:40:17.240Z,4.87
2018-07-31T14:42:45.278Z,5.30
2018-07-31T14:45:13.286Z,4.97
2018-07-31T14:47:41.327Z,5.80
2018-07-31T14:50:09.353Z,4.93
2018-07-31T14:52:37.406Z,4.90
2018-07-31T14:55:05.887Z,5.00
2018-07-31T14:57:33.904Z,5.07
2018-07-31T15:00:01.981Z,4.67
2018-07-31T15:02:29.935Z,5.70
2018-07-31T15:04:58.216Z,5.00
2018-07-31T15:07:26.232Z,4.43
2018-07-31T15:09:54.281Z,5.23
2018-07-31T15:12:22.305Z,5.57
2018-07-31T15:14:50.347Z,4.93
2018-07-31T15:17:18.367Z,5.00
2018-07-31T15:19:46.429Z,4.50
2018-07-31T15:22:14.450Z,4.23
2018-07-31T15:24:42.467Z,5.00
2018-07-31T15:27:10.474Z,4.43
2018-07-31T15:29:38.531Z,4.00
2018-07-31T15:32:06.513Z,4.30
2018-07-31T15:34:34.577Z,4.87
2018-07-31T15:37:02.602Z,5.23
2018-07-31T15:39:30.608Z,4.70
2018-07-31T15:41:58.622Z,5.00
2018-07-31T15:44:26.689Z,4.53
2018-07-31T15:46:54.705Z,4.00
2018-07-31T15:49:22.785Z,4.20
2018-07-31T15:51:50.837Z,4.87
2018-07-31T15:54:18.871Z,4.30
2018-07-31T15:56:46.857Z,4.97
2018-07-31T15:59:14.864Z,4.87
2018-07-31T16:01:42.882Z,4.73
2018-07-31T16:04:10.925Z,4.90
2018-07-31T16:06:39.006Z,5.37
2018-07-31T16:09:08.646Z,4.70
2018-07-31T16:11:36.685Z,4.20
2018-07-31T16:14:04.782Z,4.67
2018-07-31T16:16:32.928Z,4.40
2018-07-31T16:19:00.967Z,5.00
2018-07-31T16:21:28.999Z,4.13
2018-07-31T16:23:57.010Z,4.70
2018-07-31T16:26:25.037Z,4.30
2018-07-31T16:28:53.089Z,4.43
2018-07-31T16:31:21.129Z,4.70
2018-07-31T16:33:49.399Z,5.07
2018-07-31T16:36:17.394Z,4.80
2018-07-31T16:38:45.410Z,4.93
2018-07-31T16:41:13.433Z,4.63
2018-07-31T16:43:41.454Z,4.30
2018-07-31T16:46:09.552Z,4.80
2018-07-31T16:48:37.492Z,4.67
2018-07-31T16:51:05.538Z,4.60
2018-07-31T16:53:33.559Z,4.70
2018-07-31T16:56:01.606Z,4.97
2018-07-31T16:58:29.618Z,4.97
2018-07-31T17:00:57.660Z,4.83
2018-07-31T17:03:25.669Z,4.53
2018-07-31T17:05:53.697Z,6.13
2018-07-31T17:08:21.712Z,5.40
2018-07-31T17:10:49.841Z,5.10
2018-07-31T17:13:17.863Z,4.90
2018-07-31T17:15:45.861Z,5.93
2018-07-31T17:18:14.201Z,5.83
2018-07-31T17:20:42.229Z,5.07
2018-07-31T17:23:10.246Z,5.27
2018-07-31T17:25:38.275Z,5.93
2018-07-31T17:28:06.293Z,4.90
2018-07-31T17:30:34.302Z,5.40
2018-07-31T17:33:02.340Z,5.57
2018-07-31T17:35:30.370Z,5.17
2018-07-31T17:37:58.414Z,5.10
2018-07-31T17:40:26.453Z,4.83
2018-07-31T17:42:54.476Z,5.50
2018-07-31T17:45:22.504Z,6.17
2018-07-31T17:47:50.522Z,6.57
2018-07-31T17:50:18.541Z,6.37
2018-07-31T17:52:46.627Z,6.67
2018-07-31T17:55:14.578Z,5.90
2018-07-31T17:57:42.613Z,6.07
2018-07-31T18:00:10.633Z,5.97
2018-07-31T18:02:38.681Z,6.00
2018-07-31T18:05:06.690Z,6.93
2018-07-31T18:07:34.741Z,5.90
2018-07-31T18:10:02.769Z,6.37
2018-07-31T18:12:30.792Z,6.20
2018-07-31T18:14:58.788Z,5.70
2018-07-31T18:17:26.816Z,6.50
2018-07-31T18:19:54.822Z,6.07
2018-07-31T18:22:22.846Z,6.37
2018-07-31T18:24:50.873Z,6.57
2018-07-31T18:27:18.889Z,7.33
2018-07-31T18:29:46.938Z,7.00
2018-07-31T18:32:14.950Z,6.57
2018-07-31T18:34:42.969Z,6.80
2018-07-31T18:37:10.969Z,7.27
2018-07-31T18:39:38.996Z,7.97
2018-07-31T18:42:07.022Z,9.37
2018-07-31T18:44:35.053Z,11.13
2018-07-31T18:47:03.103Z,10.50
2018-07-31T18:49:31.166Z,13.67
2018-07-31T18:51:59.199Z,13.30
2018-07-31T18:54:27.236Z,11.60
2018-07-31T18:56:55.250Z,10.43
2018-07-31T18:59:23.258Z,8.20
2018-07-31T19:01:51.296Z,8.33
2018-07-31T19:04:19.309Z,9.73
2018-07-31T19:06:47.364Z,9.00
2018-07-31T19:09:15.389Z,9.33
2018-07-31T19:11:43.378Z,10.23
2018-07-31T19:14:11.540Z,9.00
2018-07-31T19:16:39.569Z,9.00
2018-07-31T19:19:07.606Z,9.13
2018-07-31T19:21:35.926Z,8.87
2018-07-31T19:24:03.992Z,8.73
2018-07-31T19:26:32.017Z,9.40
2018-07-31T19:29:00.041Z,9.20
2018-07-31T19:31:27.888Z,9.07
2018-07-31T19:33:55.983Z,8.00
2018-07-31T19:36:23.921Z,7.70
2018-07-31T19:38:51.956Z,8.10
2018-07-31T19:41:19.969Z,8.63
2018-07-31T19:43:48.017Z,8.40
2018-07-31T19:46:16.066Z,9.27
2018-07-31T19:48:44.051Z,8.80
2018-07-31T19:51:12.073Z,8.30
2018-07-31T19:53:40.083Z,8.83
2018-07-31T19:56:07.957Z,9.37
2018-07-31T19:58:35.961Z,8.77
2018-07-31T20:01:04.063Z,8.77
2018-07-31T20:03:32.170Z,8.33
2018-07-31T20:06:00.213Z,8.73
2018-07-31T20:08:28.297Z,9.23
2018-07-31T20:10:56.303Z,9.80
2018-07-31T20:13:24.318Z,9.43
2018-07-31T20:15:52.337Z,9.27
2018-07-31T20:18:20.369Z,9.70
2018-07-31T20:20:48.389Z,10.07
2018-07-31T20:23:16.446Z,10.17
2018-07-31T20:25:44.493Z,9.30
2018-07-31T20:28:12.517Z,9.87
2018-07-31T20:30:40.386Z,9.63
2018-07-31T20:33:08.390Z,9.63
2018-07-31T20:35:36.462Z,9.17
2018-07-31T20:38:04.481Z,10.43
2018-07-31T20:40:32.545Z,10.00
2018-07-31T20:43:00.557Z,10.93
2018-07-31T20:45:28.573Z,9.90
2018-07-31T20:47:56.619Z,9.60
2018-07-31T20:50:24.721Z,9.77
2018-07-31T20:52:52.697Z,11.50
2018-07-31T20:55:20.716Z,9.93
2018-07-31T20:57:48.754Z,11.50
2018-07-31T21:00:16.789Z,10.20
2018-07-31T21:02:44.840Z,10.77
2018-07-31T21:05:12.865Z,11.30
2018-07-31T21:07:40.893Z,10.53
2018-07-31T21:10:08.910Z,10.40
2018-07-31T21:12:36.752Z,12.37
2018-07-31T21:15:04.630Z,10.00
2018-07-31T21:17:32.488Z,11.13
2018-07-31T21:20:00.441Z,10.77
2018-07-31T21:22:28.310Z,10.93
2018-07-31T21:24:56.129Z,12.03
2018-07-31T21:27:23.969Z,12.03
2018-07-31T21:29:51.796Z,11.33
2018-07-31T21:32:19.681Z,11.20
2018-07-31T21:34:47.974Z,11.93
2018-07-31T21:37:15.657Z,11.73
2018-07-31T21:39:43.490Z,11.40
2018-07-31T21:42:11.388Z,11.67
2018-07-31T21:44:39.225Z,11.77
2018-07-31T21:47:07.168Z,11.70
2018-07-31T21:49:34.995Z,11.87
2018-07-31T21:52:02.838Z,11.57
2018-07-31T21:54:30.669Z,10.60
2018-07-31T21:56:58.498Z,11.37
2018-07-31T21:59:26.352Z,11.40
2018-07-31T22:01:54.185Z,11.37
2018-07-31T22:04:22.013Z,12.97
2018-07-31T22:06:49.850Z,13.70
2018-07-31T22:09:22.037Z,12.00
2018-07-31T22:11:49.885Z,11.30
2018-07-31T22:14:17.745Z,10.40
2018-07-31T22:16:45.592Z,11.47
2018-07-31T22:19:13.425Z,10.70
2018-07-31T22:21:41.248Z,10.97
2018-07-31T22:24:09.091Z,12.33
2018-07-31T22:26:36.926Z,12.13
2018-07-31T22:29:04.777Z,12.50
2018-07-31T22:31:32.636Z,13.67
2018-07-31T22:34:00.477Z,12.60
2018-07-31T22:36:28.304Z,11.70
2018-07-31T22:38:56.161Z,11.47
2018-07-31T22:41:24.005Z,11.30
2018-07-31T22:43:51.861Z,12.97
2018-07-31T22:46:19.699Z,12.33
2018-07-31T22:48:47.546Z,12.57
2018-07-31T22:51:15.358Z,11.93
2018-07-31T22:53:43.201Z,12.13
2018-07-31T22:56:11.037Z,12.00
2018-07-31T22:58:38.924Z,12.53
2018-07-31T23:01:06.757Z,12.10
2018-07-31T23:03:34.600Z,12.30
2018-07-31T23:06:02.497Z,11.67
2018-07-31T23:08:30.341Z,11.47
2018-07-31T23:10:58.176Z,12.30
2018-07-31T23:13:26.054Z,11.30
2018-07-31T23:15:53.896Z,12.87
2018-07-31T23:18:21.779Z,11.70
2018-07-31T23:20:49.632Z,12.40
2018-07-31T23:23:17.478Z,11.63
2018-07-31T23:25:45.309Z,12.70
2018-07-31T23:28:13.136Z,12.53
2018-07-31T23:30:40.970Z,12.67
2018-07-31T23:33:08.798Z,11.57
2018-07-31T23:35:36.641Z,10.67
2018-07-31T23:38:04.494Z,11.80
2018-07-31T23:40:32.352Z,12.00
2018-07-31T23:43:00.173Z,13.03
2018-07-31T23:45:28.002Z,11.50
2018-07-31T23:47:55.826Z,12.07
2018-07-31T23:50:23.665Z,13.17
2018-07-31T23:52:51.497Z,12.50
2018-07-31T23:55:19.344Z,12.10
2018-07-31T23:57:47.177Z,13.00
